Portada
METAR-TAF:

METAR-TAF

Aeroports :

Mataram, Indonèsia

latitud: 08-45-29S, longitud: 116-16-35E, altitud: 97 m

Observació

L'informe es va fer fa 19 minuts, a les 16:00 UTC
Vent 6 kt del Oest/Nord-Oest
Temperatura 24°C
Humitat 94%
Pressió 1011 hPa
Visibilitat: 7000 m
Escasses núvols a una alçada de 1500 ft, Cumulonimbus.
Cel ennuvolat a una alçada de 1600 ft

METAR: WADL 191600Z 29006KT 7000 FEW015CB BKN016 24/23 Q1011 RERA NOSIG RMK CB TO SW

Hora: 23:19 (16:19 UTC)

Pronòstic

L'informe es va fer fa 5 hores i 19 minuts, a les 11:00 UTC
Pronòstic vàlid del 19 a les 12 UTC al 20 a les 12 UTC
Vent 7 kt del Sud-Est
Visibilitat: 7000 m
Núvols disperses a una alçada de 1600 ft
Evolucionant progressivament
l' 19 a les 15 UTC al 19 a les 17 UTC
Vent kt del Nord

TAF: WADL 191100Z 1912/2012 13007KT 7000 SCT016 BECMG 1915/1917 00000KT

Observacions i pronòstics meteorològics de més de 4000 aeroports (METAR i TAF).

Les estacions disponibles són els punts grocs i vermells al mapa.

Posi el ratolí al punt desitjat per veure el nom de l'estació.

Feu clic per veure les observacions i els pronòstics meteorològics.

Per canviar el mapa: feu clic els botons verds amb una creu de color negre per apropar; al botó verd amb un guió per allunyar la imatge; o en les fletxes verdes per a mapes adjacents.


METAR-TAF: